createdAt,value
2022-09-12T00:00:55.829Z,14.32
2022-09-12T00:06:09.273Z,14.26
2022-09-12T00:11:01.790Z,14.36
2022-09-12T00:16:01.587Z,14.37
2022-09-12T00:21:01.564Z,14.33
2022-09-12T00:26:01.463Z,14.29
2022-09-12T00:31:01.385Z,14.26
2022-09-12T00:36:01.364Z,14.18
2022-09-12T00:41:01.256Z,14.17
2022-09-12T00:46:01.285Z,14.17
2022-09-12T00:51:01.173Z,14.15
2022-09-12T00:56:01.077Z,14.08
2022-09-12T01:01:01.312Z,13.99
2022-09-12T01:06:00.941Z,13.93
2022-09-12T01:11:00.915Z,13.96
2022-09-12T01:16:00.791Z,13.92
2022-09-12T01:21:00.736Z,13.89
2022-09-12T01:26:00.679Z,13.77
2022-09-12T01:31:00.574Z,13.71
2022-09-12T01:36:00.589Z,13.71
2022-09-12T01:41:00.455Z,13.70
2022-09-12T01:46:00.415Z,13.70
2022-09-12T01:51:00.315Z,13.74
2022-09-12T01:56:00.286Z,13.67
2022-09-12T02:01:00.272Z,13.60
2022-09-12T02:06:00.172Z,13.60
2022-09-12T02:11:00.059Z,13.57
2022-09-12T02:16:00.009Z,13.57
2022-09-12T02:20:59.963Z,13.53
2022-09-12T02:25:59.911Z,13.47
2022-09-12T02:30:59.827Z,13.44
2022-09-12T02:35:59.744Z,13.41
2022-09-12T02:40:59.697Z,13.41
2022-09-12T02:45:59.688Z,13.37
2022-09-12T02:50:59.567Z,13.31
2022-09-12T02:55:59.527Z,13.27
2022-09-12T03:00:59.464Z,13.31
2022-09-12T03:05:59.423Z,13.22
2022-09-12T03:10:59.303Z,13.15
2022-09-12T03:15:59.164Z,13.18
2022-09-12T03:20:59.162Z,13.18
2022-09-12T03:25:59.088Z,13.16
2022-09-12T03:30:59.029Z,13.20
2022-09-12T03:35:58.927Z,13.16
2022-09-12T03:40:58.869Z,13.15
2022-09-12T03:45:58.855Z,13.12
2022-09-12T03:50:58.749Z,13.11
2022-09-12T03:55:58.652Z,13.08
2022-09-12T04:00:58.649Z,12.94
2022-09-12T04:05:58.544Z,12.94
2022-09-12T04:10:58.457Z,12.98
2022-09-12T04:16:07.447Z,13.04
2022-09-12T04:21:00.370Z,13.25
2022-09-12T04:26:00.457Z,13.38
2022-09-12T04:31:00.258Z,13.50
2022-09-12T04:36:00.169Z,13.53
2022-09-12T04:41:00.096Z,13.54
2022-09-12T04:46:01.092Z,13.59
2022-09-12T04:50:59.943Z,13.60
2022-09-12T04:56:00.044Z,13.54
2022-09-12T05:01:01.708Z,13.56
2022-09-12T05:05:59.757Z,13.50
2022-09-12T05:10:59.885Z,13.49
2022-09-12T05:16:00.680Z,13.50
2022-09-12T05:20:59.553Z,13.47
2022-09-12T05:26:00.415Z,13.49
2022-09-12T05:30:59.497Z,13.50
2022-09-12T05:35:59.349Z,13.53
2022-09-12T05:40:59.296Z,13.57
2022-09-12T05:45:59.223Z,13.53
2022-09-12T05:51:00.104Z,13.67
2022-09-12T05:56:00.037Z,13.77
2022-09-12T06:01:00.028Z,13.83
2022-09-12T06:05:59.011Z,13.74
2022-09-12T06:11:02.155Z,13.83
2022-09-12T06:15:58.875Z,13.93
2022-09-12T06:20:58.750Z,14.11
2022-09-12T06:25:59.648Z,14.30
2022-09-12T06:30:58.671Z,14.30
2022-09-12T06:35:58.563Z,14.11
2022-09-12T06:40:58.533Z,14.11
2022-09-12T06:45:58.438Z,14.05
2022-09-12T06:50:58.371Z,14.11
2022-09-12T06:55:58.303Z,14.15
2022-09-12T07:00:59.562Z,14.15
2022-09-12T07:05:58.419Z,14.26
2022-09-12T07:10:58.089Z,14.26
2022-09-12T07:15:58.002Z,14.25
2022-09-12T07:20:57.954Z,14.25
2022-09-12T07:25:57.916Z,14.48
2022-09-12T07:30:57.993Z,14.69
2022-09-12T07:35:57.784Z,14.79
2022-09-12T07:40:57.679Z,15.04
2022-09-12T07:45:57.650Z,15.07
2022-09-12T07:50:57.551Z,15.24
2022-09-12T07:55:57.487Z,15.52
2022-09-12T08:00:57.420Z,15.59
2022-09-12T08:05:57.352Z,15.77
2022-09-12T08:10:57.309Z,16.04
2022-09-12T08:15:57.253Z,16.02
2022-09-12T08:20:57.173Z,15.62
2022-09-12T08:25:57.101Z,15.72
2022-09-12T08:30:57.100Z,16.41
2022-09-12T08:35:57.002Z,17.41
2022-09-12T08:40:56.936Z,18.53
2022-09-12T08:45:56.883Z,20.06
2022-09-12T08:50:56.755Z,21.30
2022-09-12T08:55:56.685Z,22.60
2022-09-12T09:00:56.615Z,23.46
2022-09-12T09:05:56.557Z,23.59
2022-09-12T09:10:56.664Z,24.17
2022-09-12T09:15:56.437Z,25.50
2022-09-12T09:20:56.370Z,25.75
2022-09-12T09:25:56.304Z,25.91
2022-09-12T09:30:56.307Z,25.11
2022-09-12T09:35:56.157Z,26.29
2022-09-12T09:40:56.108Z,28.07
2022-09-12T09:45:56.068Z,29.02
2022-09-12T09:50:55.943Z,30.35
2022-09-12T09:55:55.904Z,29.82
2022-09-12T10:00:56.823Z,29.53
2022-09-12T10:05:55.772Z,30.85
2022-09-12T10:10:55.718Z,30.77
2022-09-12T10:15:55.738Z,30.69
2022-09-12T10:20:55.561Z,30.10
2022-09-12T10:25:55.518Z,29.66
2022-09-12T10:30:55.547Z,29.54
2022-09-12T10:35:55.403Z,30.87
2022-09-12T10:40:55.343Z,31.54
2022-09-12T10:45:55.285Z,31.94
2022-09-12T10:50:55.205Z,32.27
2022-09-12T10:55:55.132Z,31.76
2022-09-12T11:00:55.070Z,31.42
2022-09-12T11:05:55.016Z,32.67
2022-09-12T11:10:54.950Z,31.93
2022-09-12T11:15:54.943Z,32.41
2022-09-12T11:20:54.807Z,32.04
2022-09-12T11:25:54.788Z,31.39
2022-09-12T11:30:54.750Z,30.24
2022-09-12T11:35:55.661Z,31.21
2022-09-12T11:40:54.576Z,31.00
2022-09-12T11:45:54.593Z,30.81
2022-09-12T11:50:54.421Z,30.80
2022-09-12T11:55:54.376Z,31.34
2022-09-12T12:00:54.300Z,30.78
2022-09-12T12:05:54.270Z,30.69
2022-09-12T12:10:54.172Z,30.80
2022-09-12T12:15:54.157Z,30.80
2022-09-12T12:20:54.100Z,30.69
2022-09-12T12:25:54.057Z,30.15
2022-09-12T12:30:54.048Z,30.43
2022-09-12T12:35:53.896Z,30.47
2022-09-12T12:40:53.786Z,29.69
2022-09-12T12:45:53.783Z,29.95
2022-09-12T12:50:53.680Z,29.84
2022-09-12T12:55:53.683Z,29.53
2022-09-12T13:00:53.552Z,29.65
2022-09-12T13:05:53.461Z,28.75
2022-09-12T13:10:53.573Z,28.62
2022-09-12T13:15:53.645Z,28.27
2022-09-12T13:20:53.261Z,28.23
2022-09-12T13:25:53.240Z,27.52
2022-09-12T13:30:53.229Z,27.29
2022-09-12T13:35:53.242Z,27.08
2022-09-12T13:40:53.015Z,27.11
2022-09-12T13:45:52.991Z,26.92
2022-09-12T13:50:52.883Z,26.80
2022-09-12T13:55:52.827Z,26.88
2022-09-12T14:00:52.784Z,26.65
2022-09-12T14:05:52.700Z,26.60
2022-09-12T14:10:52.616Z,26.48
2022-09-12T14:15:52.754Z,26.31
2022-09-12T14:20:52.552Z,26.16
2022-09-12T14:25:52.456Z,26.38
2022-09-12T14:30:52.383Z,26.07
2022-09-12T14:35:52.312Z,26.21
2022-09-12T14:40:52.289Z,26.21
2022-09-12T14:45:52.218Z,25.95
2022-09-12T14:50:52.142Z,25.93
2022-09-12T14:55:52.035Z,25.93
2022-09-12T15:00:51.956Z,25.98
2022-09-12T15:05:51.879Z,25.91
2022-09-12T15:10:51.901Z,25.77
2022-09-12T15:15:51.856Z,25.88
2022-09-12T15:20:51.705Z,25.81
2022-09-12T15:25:51.644Z,25.78
2022-09-12T15:30:51.612Z,25.63
2022-09-12T15:35:51.576Z,25.48
2022-09-12T15:40:51.474Z,25.25
2022-09-12T15:45:51.411Z,25.11
2022-09-12T15:50:51.331Z,25.08
2022-09-12T15:55:51.268Z,24.86
2022-09-12T16:00:51.173Z,24.61
2022-09-12T16:05:51.208Z,24.54
2022-09-12T16:10:51.159Z,24.57
2022-09-12T16:15:50.979Z,24.57
2022-09-12T16:20:50.931Z,24.53
2022-09-12T16:25:50.862Z,24.53
2022-09-12T16:30:50.821Z,24.42
2022-09-12T16:35:50.719Z,24.16
2022-09-12T16:40:50.675Z,24.02
2022-09-12T16:45:50.590Z,23.81
2022-09-12T16:50:50.535Z,23.62
2022-09-12T16:55:50.472Z,23.44
2022-09-12T17:00:50.428Z,23.24
2022-09-12T17:05:50.313Z,23.09
2022-09-12T17:10:50.273Z,23.00
2022-09-12T17:15:50.253Z,22.85
2022-09-12T17:20:50.174Z,22.73
2022-09-12T17:25:50.053Z,22.66
2022-09-12T17:30:49.996Z,22.55
2022-09-12T17:35:49.921Z,22.39
2022-09-12T17:40:59.522Z,22.23
2022-09-12T17:45:50.822Z,22.10
2022-09-12T17:50:49.746Z,21.93
2022-09-12T17:55:54.158Z,21.75
2022-09-12T18:00:49.603Z,21.60
2022-09-12T18:05:49.549Z,21.40
2022-09-12T18:10:49.468Z,21.22
2022-09-12T18:15:49.421Z,21.06
2022-09-12T18:20:49.338Z,21.02
2022-09-12T18:25:49.306Z,20.95
2022-09-12T18:30:49.248Z,20.88
2022-09-12T18:35:49.195Z,20.81
2022-09-12T18:40:49.090Z,20.74
2022-09-12T18:45:49.028Z,20.65
2022-09-12T18:50:48.921Z,20.52
2022-09-12T18:55:48.882Z,20.47
2022-09-12T19:00:48.853Z,20.34
2022-09-12T19:05:48.740Z,20.34
2022-09-12T19:10:48.767Z,20.22
2022-09-12T19:15:48.671Z,20.18
2022-09-12T19:20:48.545Z,20.16
2022-09-12T19:25:48.513Z,20.09
2022-09-12T19:30:48.704Z,20.02
2022-09-12T19:35:48.385Z,19.86
2022-09-12T19:40:48.270Z,19.77
2022-09-12T19:45:48.276Z,19.71
2022-09-12T19:50:48.127Z,19.64
2022-09-12T19:55:48.079Z,19.47
2022-09-12T20:00:48.226Z,19.22
2022-09-12T20:05:48.095Z,19.00
2022-09-12T20:10:47.913Z,18.90
2022-09-12T20:15:47.885Z,18.81
2022-09-12T20:20:47.766Z,18.62
2022-09-12T20:25:47.701Z,18.53
2022-09-12T20:30:47.713Z,18.47
2022-09-12T20:35:47.545Z,18.37
2022-09-12T20:40:47.489Z,18.28
2022-09-12T20:45:47.419Z,18.13
2022-09-12T20:50:47.386Z,18.03
2022-09-12T20:55:47.315Z,18.03
2022-09-12T21:00:47.231Z,18.08
2022-09-12T21:05:47.158Z,18.10
2022-09-12T21:10:47.088Z,18.07
2022-09-12T21:15:47.056Z,18.10
2022-09-12T21:20:46.953Z,18.11
2022-09-12T21:25:52.479Z,18.11
2022-09-12T21:30:47.855Z,18.03
2022-09-12T21:35:46.806Z,17.98
2022-09-12T21:40:46.690Z,18.04
2022-09-12T21:45:46.615Z,18.05
2022-09-12T21:50:46.566Z,17.95
2022-09-12T21:55:46.508Z,17.83
2022-09-12T22:00:46.531Z,17.76
2022-09-12T22:05:46.374Z,17.74
2022-09-12T22:10:46.284Z,17.74
2022-09-12T22:15:46.310Z,17.67
2022-09-12T22:20:46.224Z,17.48
2022-09-12T22:25:46.101Z,17.33
2022-09-12T22:30:46.131Z,17.29
2022-09-12T22:35:45.965Z,17.22
2022-09-12T22:40:45.901Z,17.20
2022-09-12T22:45:45.878Z,17.14
2022-09-12T22:50:45.809Z,16.99
2022-09-12T22:55:45.695Z,16.84
2022-09-12T23:00:45.673Z,16.71
2022-09-12T23:05:45.553Z,16.68
2022-09-12T23:10:45.686Z,16.69
2022-09-12T23:15:45.440Z,16.71
2022-09-12T23:20:45.418Z,16.65
2022-09-12T23:25:45.306Z,16.60
2022-09-12T23:30:45.232Z,16.61
2022-09-12T23:35:45.166Z,16.64
2022-09-12T23:40:45.097Z,16.65
2022-09-12T23:45:45.077Z,16.66
2022-09-12T23:50:44.946Z,16.65
2022-09-12T23:55:44.888Z,16.65
